Time;durP1;ratioP1;P1;durP2;ratioP2;P2;SDS_P1;SDS_P2;PMS_P1;PMS_P2;Temp;Humidity;BMP_temperature;BMP_pressure;BME280_temperature;BME280_humidity;BME280_pressure;Samples;Min_cycle;Max_cycle;Signal;HPM_P1;HPM_P2
2021/04/17 00:00:10;;;;;;;31.08;30.17;;;;;;;;;;5051999;28;20041;-52
2021/04/17 00:02:37;;;;;;;30.33;29.42;;;;;;;;;;5050045;28;20067;-53
2021/04/17 00:05:04;;;;;;;32.47;31.23;;;;;;;;;;5051086;28;20049;-54
2021/04/17 00:07:31;;;;;;;33.55;32.45;;;;;;;;;;5031149;28;20041;-52
2021/04/17 00:09:57;;;;;;;31.95;30.77;;;;;;;;;;5048163;28;20033;-54
2021/04/17 00:12:23;;;;;;;31.27;30.23;;;;;;;;;;5051453;28;20045;-54
2021/04/17 00:14:51;;;;;;;30.92;30.02;;;;;;;;;;5050699;28;20048;-53
2021/04/17 00:17:18;;;;;;;30.38;29.42;;;;;;;;;;5051594;28;20060;-55
2021/04/17 00:19:48;;;;;;;32.17;31.17;;;;;;;;;;5057123;28;20055;-54
2021/04/17 00:22:14;;;;;;;30.55;29.52;;;;;;;;;;5050447;28;20036;-54
2021/04/17 00:24:40;;;;;;;30.77;29.77;;;;;;;;;;5050011;28;20247;-54
2021/04/17 00:27:07;;;;;;;31.65;30.60;;;;;;;;;;5051292;28;20045;-54
2021/04/17 00:29:34;;;;;;;32.63;31.58;;;;;;;;;;5044900;28;20036;-54
2021/04/17 00:32:01;;;;;;;30.00;28.48;;;;;;;;;;5051995;28;20463;-54
2021/04/17 00:34:27;;;;;;;28.50;27.40;;;;;;;;;;5048654;28;20041;-54
2021/04/17 00:36:54;;;;;;;30.60;29.52;;;;;;;;;;5037712;28;20041;-54
2021/04/17 00:39:20;;;;;;;32.05;31.13;;;;;;;;;;5039854;28;20044;-54
2021/04/17 00:41:46;;;;;;;31.02;29.92;;;;;;;;;;5053335;28;20037;-53
2021/04/17 00:44:13;;;;;;;29.48;28.77;;;;;;;;;;5051744;28;20045;-54
2021/04/17 00:46:39;;;;;;;32.63;31.45;;;;;;;;;;5049973;28;20575;-54
2021/04/17 00:49:07;;;;;;;32.45;31.45;;;;;;;;;;5049446;28;20033;-52
2021/04/17 00:51:33;;;;;;;30.73;29.67;;;;;;;;;;5050200;28;20038;-54
2021/04/17 00:54:00;;;;;;;29.75;28.65;;;;;;;;;;5050182;28;20103;-54
2021/04/17 00:56:26;;;;;;;32.28;31.40;;;;;;;;;;5051401;28;20550;-53
2021/04/17 00:58:52;;;;;;;31.13;30.13;;;;;;;;;;5046685;28;20025;-53
2021/04/17 01:01:19;;;;;;;31.95;31.00;;;;;;;;;;5049651;28;20089;-55
2021/04/17 01:03:54;;;;;;;28.50;27.48;;;;;;;;;;5040716;28;20585;-54
2021/04/17 01:06:30;;;;;;;31.10;30.08;;;;;;;;;;5045557;28;20086;-54
2021/04/17 01:09:08;;;;;;;32.38;31.45;;;;;;;;;;5049402;28;20056;-54
2021/04/17 01:11:44;;;;;;;31.17;29.83;;;;;;;;;;5050366;28;20029;-53
2021/04/17 01:14:12;;;;;;;29.58;28.73;;;;;;;;;;5050768;28;20092;-54
2021/04/17 01:16:38;;;;;;;31.10;30.33;;;;;;;;;;5051120;28;20504;-54
2021/04/17 01:19:08;;;;;;;31.75;30.70;;;;;;;;;;5051253;28;20044;-48
2021/04/17 01:21:36;;;;;;;32.00;31.13;;;;;;;;;;5053244;28;20039;-54
2021/04/17 01:24:06;;;;;;;28.10;27.23;;;;;;;;;;5054856;28;20056;-54
2021/04/17 01:26:32;;;;;;;29.38;28.45;;;;;;;;;;5052712;28;20491;-53
2021/04/17 01:28:58;;;;;;;29.15;28.45;;;;;;;;;;5055325;28;20041;-53
2021/04/17 01:31:27;;;;;;;30.90;30.10;;;;;;;;;;5053142;28;20377;-54
2021/04/17 01:33:56;;;;;;;30.75;29.85;;;;;;;;;;5051784;28;20060;-54
2021/04/17 01:36:23;;;;;;;31.58;30.65;;;;;;;;;;5054889;28;20504;-54
2021/04/17 01:38:52;;;;;;;28.50;27.90;;;;;;;;;;5051672;28;20063;-54
2021/04/17 01:41:23;;;;;;;30.63;29.63;;;;;;;;;;5064212;28;20493;-54
2021/04/17 01:43:51;;;;;;;31.73;30.48;;;;;;;;;;5053892;28;20048;-54
2021/04/17 01:46:24;;;;;;;29.92;29.13;;;;;;;;;;5051420;28;20056;-54
2021/04/17 01:48:54;;;;;;;27.75;26.95;;;;;;;;;;5052992;28;20155;-54
2021/04/17 01:51:21;;;;;;;30.98;30.02;;;;;;;;;;5051146;28;20084;-54
2021/04/17 01:53:50;;;;;;;30.40;29.55;;;;;;;;;;5052990;28;20104;-54
2021/04/17 01:56:17;;;;;;;30.33;29.63;;;;;;;;;;5054430;28;20037;-54
2021/04/17 01:58:44;;;;;;;32.17;31.38;;;;;;;;;;5035293;28;20060;-52
2021/04/17 02:01:11;;;;;;;27.90;27.30;;;;;;;;;;5026855;28;20048;-54
2021/04/17 02:03:37;;;;;;;28.77;27.95;;;;;;;;;;5052941;28;20124;-54
2021/04/17 02:06:04;;;;;;;28.80;28.13;;;;;;;;;;5052660;28;20076;-54
2021/04/17 02:08:34;;;;;;;30.25;29.35;;;;;;;;;;5054271;28;20041;-54
2021/04/17 02:11:02;;;;;;;30.58;29.70;;;;;;;;;;5051985;28;20124;-54
2021/04/17 02:13:29;;;;;;;29.05;28.45;;;;;;;;;;5053909;28;20045;-53
2021/04/17 02:16:01;;;;;;;29.90;29.02;;;;;;;;;;5051283;28;20089;-54
2021/04/17 02:18:29;;;;;;;28.92;28.30;;;;;;;;;;5044113;28;20037;-54
2021/04/17 02:21:04;;;;;;;29.35;28.55;;;;;;;;;;5053982;28;20056;-54
2021/04/17 02:23:31;;;;;;;31.65;30.85;;;;;;;;;;5051452;28;20043;-54
2021/04/17 02:25:58;;;;;;;29.40;28.65;;;;;;;;;;5050315;28;20091;-53
2021/04/17 02:28:27;;;;;;;28.40;27.70;;;;;;;;;;5052960;28;20041;-54
2021/04/17 02:30:54;;;;;;;30.00;29.08;;;;;;;;;;5050368;28;20116;-54
2021/04/17 02:33:21;;;;;;;30.85;30.02;;;;;;;;;;5036169;28;20128;-54
2021/04/17 02:35:47;;;;;;;31.30;30.30;;;;;;;;;;5051929;28;20116;-54
2021/04/17 02:38:14;;;;;;;29.52;28.52;;;;;;;;;;5051612;28;20037;-54
2021/04/17 02:40:40;;;;;;;31.65;30.50;;;;;;;;;;5063031;28;20056;-55
2021/04/17 02:43:06;;;;;;;28.20;27.60;;;;;;;;;;5054009;28;20044;-53
2021/04/17 02:45:33;;;;;;;29.20;28.58;;;;;;;;;;5053594;28;20048;-54
2021/04/17 02:47:59;;;;;;;29.27;28.48;;;;;;;;;;5051600;28;20053;-54
2021/04/17 02:50:26;;;;;;;30.48;29.48;;;;;;;;;;5051981;28;20106;-54
2021/04/17 02:52:52;;;;;;;30.05;29.08;;;;;;;;;;5053250;28;20049;-54
2021/04/17 02:55:19;;;;;;;28.05;27.35;;;;;;;;;;5050110;28;20029;-55
2021/04/17 02:57:46;;;;;;;30.65;29.95;;;;;;;;;;5053515;28;20037;-55
2021/04/17 03:00:14;;;;;;;28.35;27.52;;;;;;;;;;5052252;28;20072;-55
2021/04/17 03:02:40;;;;;;;29.30;28.70;;;;;;;;;;5050378;28;20045;-55
2021/04/17 03:05:07;;;;;;;28.05;27.20;;;;;;;;;;5053054;28;20099;-54
2021/04/17 03:07:33;;;;;;;27.10;26.25;;;;;;;;;;5050945;28;20083;-52
2021/04/17 03:10:00;;;;;;;29.95;29.02;;;;;;;;;;5051926;28;20049;-50
2021/04/17 03:12:26;;;;;;;29.08;28.27;;;;;;;;;;5051015;28;20037;-55
2021/04/17 03:14:52;;;;;;;28.63;27.83;;;;;;;;;;5032180;28;20404;-54
2021/04/17 03:17:19;;;;;;;29.67;29.00;;;;;;;;;;5052563;28;20033;-55
2021/04/17 03:19:46;;;;;;;26.17;25.67;;;;;;;;;;5049560;28;20084;-55
2021/04/17 03:22:12;;;;;;;25.90;25.30;;;;;;;;;;5052813;28;20060;-55
2021/04/17 03:24:39;;;;;;;27.75;27.08;;;;;;;;;;5052272;28;20040;-54
2021/04/17 03:27:05;;;;;;;26.02;25.52;;;;;;;;;;5050301;28;20111;-55
2021/04/17 03:29:32;;;;;;;28.83;28.15;;;;;;;;;;5052625;28;20039;-54
2021/04/17 03:31:58;;;;;;;27.85;27.15;;;;;;;;;;5050680;28;20359;-54
2021/04/17 03:34:24;;;;;;;27.20;26.50;;;;;;;;;;5051106;28;20493;-54
2021/04/17 03:36:51;;;;;;;28.20;27.30;;;;;;;;;;5049202;28;20045;-54
2021/04/17 03:39:17;;;;;;;28.58;27.70;;;;;;;;;;5048969;28;20045;-55
2021/04/17 03:41:43;;;;;;;27.20;26.35;;;;;;;;;;5049812;28;20043;-55
2021/04/17 03:44:10;;;;;;;26.25;25.50;;;;;;;;;;5050514;28;20080;-54
2021/04/17 03:46:41;;;;;;;25.27;24.75;;;;;;;;;;5050310;28;20040;-53
2021/04/17 03:49:07;;;;;;;24.65;24.00;;;;;;;;;;5052101;28;20096;-54
2021/04/17 03:51:33;;;;;;;25.85;25.15;;;;;;;;;;5050130;28;20436;-54
2021/04/17 03:53:59;;;;;;;24.25;23.40;;;;;;;;;;5052126;28;20040;-55
2021/04/17 03:56:26;;;;;;;26.52;25.63;;;;;;;;;;5048426;28;20041;-54
2021/04/17 03:58:52;;;;;;;24.40;23.92;;;;;;;;;;5038997;28;20051;-54
2021/04/17 04:01:18;;;;;;;22.42;21.92;;;;;;;;;;5050867;28;20072;-54
2021/04/17 04:03:45;;;;;;;20.85;20.52;;;;;;;;;;5050005;28;20041;-54
2021/04/17 04:06:11;;;;;;;22.80;22.20;;;;;;;;;;5046617;28;20108;-54
2021/04/17 04:08:38;;;;;;;24.48;23.88;;;;;;;;;;5050107;28;20449;-54
2021/04/17 04:11:04;;;;;;;23.63;23.08;;;;;;;;;;5031261;28;20041;-55
2021/04/17 04:13:30;;;;;;;21.90;21.60;;;;;;;;;;5053059;28;20480;-54
2021/04/17 04:15:56;;;;;;;23.38;22.90;;;;;;;;;;5049601;28;20512;-52
2021/04/17 04:18:23;;;;;;;23.45;22.70;;;;;;;;;;5045362;28;20052;-54
2021/04/17 04:20:49;;;;;;;22.20;21.75;;;;;;;;;;5049580;28;20037;-54
2021/04/17 04:23:15;;;;;;;24.00;23.17;;;;;;;;;;5051585;28;20404;-55
2021/04/17 04:25:41;;;;;;;24.20;23.40;;;;;;;;;;5037455;28;20045;-55
2021/04/17 04:28:07;;;;;;;23.92;23.23;;;;;;;;;;5049663;28;20109;-55
2021/04/17 04:30:34;;;;;;;23.52;23.02;;;;;;;;;;5051569;28;20060;-54
2021/04/17 04:33:00;;;;;;;23.02;22.52;;;;;;;;;;5050677;28;20044;-55
2021/04/17 04:35:27;;;;;;;22.13;21.60;;;;;;;;;;5049934;28;20124;-54
2021/04/17 04:37:53;;;;;;;22.60;22.08;;;;;;;;;;5051639;28;20168;-54
2021/04/17 04:40:19;;;;;;;25.02;24.20;;;;;;;;;;5048118;28;20049;-54
2021/04/17 04:42:46;;;;;;;21.73;21.27;;;;;;;;;;5036198;28;20115;-54
2021/04/17 04:45:12;;;;;;;22.17;21.63;;;;;;;;;;5050296;28;20124;-55
2021/04/17 04:47:39;;;;;;;19.95;19.65;;;;;;;;;;5049763;28;20551;-55
2021/04/17 04:50:06;;;;;;;21.40;20.90;;;;;;;;;;5053521;28;20029;-54
2021/04/17 04:52:33;;;;;;;23.42;22.90;;;;;;;;;;5052876;28;20041;-55
2021/04/17 04:54:59;;;;;;;21.88;21.15;;;;;;;;;;5055077;28;20519;-55
2021/04/17 04:57:26;;;;;;;23.20;22.80;;;;;;;;;;5043032;28;20045;-55
2021/04/17 04:59:52;;;;;;;23.13;22.58;;;;;;;;;;5047571;28;20060;-54
2021/04/17 05:02:18;;;;;;;21.58;20.98;;;;;;;;;;5055635;28;20036;-55
2021/04/17 05:04:45;;;;;;;23.85;23.08;;;;;;;;;;5052809;28;20033;-55
2021/04/17 05:07:12;;;;;;;21.92;21.17;;;;;;;;;;5051120;28;20041;-54
2021/04/17 05:09:39;;;;;;;23.52;22.95;;;;;;;;;;5056053;28;20151;-55
2021/04/17 05:12:05;;;;;;;22.42;21.75;;;;;;;;;;5049359;28;20645;-54
2021/04/17 05:14:31;;;;;;;21.13;20.50;;;;;;;;;;5055311;28;20068;-55
2021/04/17 05:16:57;;;;;;;24.13;23.48;;;;;;;;;;5052014;28;20048;-55
2021/04/17 05:19:25;;;;;;;23.30;22.30;;;;;;;;;;5045679;28;20048;-55
2021/04/17 05:21:52;;;;;;;21.20;20.80;;;;;;;;;;5049969;28;20115;-54
2021/04/17 05:24:18;;;;;;;21.55;21.15;;;;;;;;;;5053052;28;20041;-50
2021/04/17 05:26:45;;;;;;;25.48;24.75;;;;;;;;;;5047300;28;20675;-54
2021/04/17 05:29:13;;;;;;;22.40;22.00;;;;;;;;;;5053227;28;20045;-55
2021/04/17 05:31:39;;;;;;;20.95;20.35;;;;;;;;;;5052604;28;20041;-55
2021/04/17 05:34:06;;;;;;;22.33;21.52;;;;;;;;;;5044391;28;20045;-55
2021/04/17 05:36:35;;;;;;;21.88;21.35;;;;;;;;;;5050170;28;20041;-54
2021/04/17 05:39:03;;;;;;;22.63;22.02;;;;;;;;;;5046426;28;20052;-55
2021/04/17 05:41:29;;;;;;;23.02;22.33;;;;;;;;;;5053855;28;20037;-55
2021/04/17 05:43:55;;;;;;;21.90;21.30;;;;;;;;;;5053849;28;20053;-52
2021/04/17 05:46:22;;;;;;;20.40;19.77;;;;;;;;;;5054418;28;20041;-55
2021/04/17 05:48:48;;;;;;;21.25;20.75;;;;;;;;;;5050899;28;20107;-55
2021/04/17 05:51:14;;;;;;;23.85;23.08;;;;;;;;;;5052849;28;20040;-55
2021/04/17 05:53:41;;;;;;;22.63;22.02;;;;;;;;;;5053708;28;20100;-55
2021/04/17 05:56:08;;;;;;;22.15;21.10;;;;;;;;;;5052118;28;20037;-55
2021/04/17 05:58:34;;;;;;;60.00;39.97;;;;;;;;;;5053872;28;20065;-55
2021/04/17 06:01:01;;;;;;;20.38;19.98;;;;;;;;;;5051772;28;20477;-55
2021/04/17 06:03:28;;;;;;;24.60;23.20;;;;;;;;;;5053974;28;20029;-55
2021/04/17 06:05:55;;;;;;;21.90;21.30;;;;;;;;;;5051683;28;20099;-54
2021/04/17 06:08:21;;;;;;;19.73;18.90;;;;;;;;;;5052077;28;20070;-55
2021/04/17 06:10:47;;;;;;;23.23;22.23;;;;;;;;;;5035459;28;20044;-55
2021/04/17 06:13:13;;;;;;;22.17;21.63;;;;;;;;;;5052395;28;20095;-55
2021/04/17 06:15:39;;;;;;;20.20;19.55;;;;;;;;;;5051716;28;20041;-55
2021/04/17 06:18:06;;;;;;;20.90;20.48;;;;;;;;;;5053094;28;20040;-55
2021/04/17 06:20:32;;;;;;;19.88;19.35;;;;;;;;;;5051007;28;20460;-55
2021/04/17 06:22:59;;;;;;;15.70;15.15;;;;;;;;;;5054191;28;20640;-55
2021/04/17 06:25:26;;;;;;;18.85;18.23;;;;;;;;;;5051886;28;20131;-55
2021/04/17 06:27:52;;;;;;;19.05;18.73;;;;;;;;;;5052750;28;20053;-55
2021/04/17 06:30:18;;;;;;;20.77;20.25;;;;;;;;;;5053466;28;20092;-55
2021/04/17 06:32:48;;;;;;;14.48;14.25;;;;;;;;;;5051034;28;20036;-55
2021/04/17 06:35:17;;;;;;;19.17;18.65;;;;;;;;;;5053832;28;20128;-55
2021/04/17 06:37:43;;;;;;;8.60;8.45;;;;;;;;;;5051655;28;20045;-54
2021/04/17 06:40:10;;;;;;;16.58;16.08;;;;;;;;;;5054325;28;20053;-55
2021/04/17 06:42:38;;;;;;;8.95;8.65;;;;;;;;;;5050686;28;20516;-55
2021/04/17 06:45:05;;;;;;;9.75;9.55;;;;;;;;;;5049725;28;20032;-56
2021/04/17 06:47:31;;;;;;;6.68;6.47;;;;;;;;;;5048043;28;20065;-55
2021/04/17 06:49:58;;;;;;;12.52;12.13;;;;;;;;;;5050930;28;20033;-55
2021/04/17 06:52:26;;;;;;;17.33;17.02;;;;;;;;;;5050925;28;20053;-55
2021/04/17 06:54:52;;;;;;;18.88;18.25;;;;;;;;;;5052383;28;20092;-54
2021/04/17 06:57:19;;;;;;;20.25;19.75;;;;;;;;;;5050380;28;20087;-56
2021/04/17 06:59:45;;;;;;;22.70;21.80;;;;;;;;;;5039109;28;20389;-55
2021/04/17 07:02:20;;;;;;;22.40;21.35;;;;;;;;;;5051414;28;20087;-53
2021/04/17 07:04:48;;;;;;;23.40;22.77;;;;;;;;;;5050425;28;20053;-55
2021/04/17 07:07:14;;;;;;;22.50;21.70;;;;;;;;;;5050931;28;20115;-55
2021/04/17 07:09:41;;;;;;;20.52;19.98;;;;;;;;;;5046124;28;20037;-56
2021/04/17 07:12:07;;;;;;;21.17;20.42;;;;;;;;;;5048643;28;20473;-55
2021/04/17 07:14:42;;;;;;;22.80;22.20;;;;;;;;;;5049885;28;20123;-55
2021/04/17 07:17:09;;;;;;;22.05;21.30;;;;;;;;;;5047333;28;20041;-55
2021/04/17 07:19:49;;;;;;;21.52;20.92;;;;;;;;;;5053578;28;20119;-55
2021/04/17 07:22:17;;;;;;;20.67;19.83;;;;;;;;;;5049942;28;20048;-56
2021/04/17 07:24:44;;;;;;;23.17;22.17;;;;;;;;;;5052158;28;20071;-55
2021/04/17 07:27:28;;;;;;;20.60;19.80;;;;;;;;;;5051169;28;20124;-55
2021/04/17 07:29:55;;;;;;;19.85;19.27;;;;;;;;;;5050783;28;20127;-55
2021/04/17 07:32:21;;;;;;;13.32;13.10;;;;;;;;;;5050964;28;20037;-54
2021/04/17 07:35:06;;;;;;;13.48;13.30;;;;;;;;;;5052137;28;20511;-54
2021/04/17 07:37:32;;;;;;;16.35;16.08;;;;;;;;;;5050599;28;20401;-55
2021/04/17 07:40:19;;;;;;;15.13;14.15;;;;;;;;;;5046681;28;20028;-54
2021/04/17 07:42:50;;;;;;;16.15;15.95;;;;;;;;;;5051516;28;20120;-54
2021/04/17 07:45:18;;;;;;;15.20;14.75;;;;;;;;;;5049148;28;20049;-54
2021/04/17 07:47:44;;;;;;;14.13;13.93;;;;;;;;;;5052458;28;20041;-54
2021/04/17 07:50:12;;;;;;;10.07;9.98;;;;;;;;;;5050231;28;20100;-55
2021/04/17 07:52:41;;;;;;;14.55;14.15;;;;;;;;;;5050930;28;20044;-56
2021/04/17 07:55:09;;;;;;;13.88;13.57;;;;;;;;;;5051131;28;20544;-55
2021/04/17 07:57:40;;;;;;;17.20;16.85;;;;;;;;;;5049165;28;20036;-54
2021/04/17 08:00:08;;;;;;;8.30;8.15;;;;;;;;;;5052027;28;20653;-55
2021/04/17 08:02:35;;;;;;;8.82;8.63;;;;;;;;;;5040977;28;20033;-54
2021/04/17 08:05:03;;;;;;;6.53;6.43;;;;;;;;;;5049413;28;20163;-55
2021/04/17 08:07:30;;;;;;;11.98;11.85;;;;;;;;;;5050700;28;20445;-55
2021/04/17 08:09:57;;;;;;;11.02;10.85;;;;;;;;;;5049825;28;20044;-55
2021/04/17 08:12:24;;;;;;;9.90;9.70;;;;;;;;;;5050215;28;20041;-55
2021/04/17 08:14:51;;;;;;;11.82;11.63;;;;;;;;;;5050592;28;20095;-55
2021/04/17 08:17:18;;;;;;;4.35;4.25;;;;;;;;;;5050994;28;20044;-55
2021/04/17 08:19:44;;;;;;;4.60;4.50;;;;;;;;;;5045154;28;20033;-55
2021/04/17 08:22:11;;;;;;;4.32;4.15;;;;;;;;;;5046280;28;20091;-55
2021/04/17 08:24:38;;;;;;;10.00;9.45;;;;;;;;;;5049292;28;20052;-46
2021/04/17 08:27:04;;;;;;;4.97;4.75;;;;;;;;;;5041085;28;20037;-44
2021/04/17 08:29:49;;;;;;;4.57;4.28;;;;;;;;;;5044818;28;20501;-44
2021/04/17 08:32:39;;;;;;;3.28;3.17;;;;;;;;;;5044694;28;20367;-44
2021/04/17 08:35:16;;;;;;;3.35;3.17;;;;;;;;;;5038372;28;20052;-44
2021/04/17 08:37:55;;;;;;;3.13;3.03;;;;;;;;;;5048382;28;20489;-45
2021/04/17 08:40:39;;;;;;;3.22;3.13;;;;;;;;;;5048808;28;20522;-47
2021/04/17 08:43:18;;;;;;;7.00;6.85;;;;;;;;;;5045839;28;20080;-45
2021/04/17 08:46:03;;;;;;;5.13;4.90;;;;;;;;;;5048913;28;20614;-45
2021/04/17 08:48:42;;;;;;;3.15;3.15;;;;;;;;;;5051204;28;20033;-45
2021/04/17 08:51:20;;;;;;;11.70;11.55;;;;;;;;;;5044774;28;20048;-46
2021/04/17 08:53:47;;;;;;;13.02;12.73;;;;;;;;;;5047350;28;20052;-46
2021/04/17 08:56:13;;;;;;;8.23;8.13;;;;;;;;;;5046303;28;20045;-44
2021/04/17 08:58:40;;;;;;;5.45;5.35;;;;;;;;;;5048749;28;20037;-45
2021/04/17 09:01:08;;;;;;;3.95;3.85;;;;;;;;;;5048037;28;20512;-46
2021/04/17 09:03:45;;;;;;;3.63;3.53;;;;;;;;;;5042935;28;20115;-46
2021/04/17 09:06:32;;;;;;;3.47;3.42;;;;;;;;;;5049298;28;20558;-47
2021/04/17 09:09:20;;;;;;;3.00;2.90;;;;;;;;;;5028466;28;20061;-46
2021/04/17 09:11:53;;;;;;;3.38;3.28;;;;;;;;;;5050521;28;20386;-45
2021/04/17 09:14:25;;;;;;;3.13;2.92;;;;;;;;;;5050657;28;20125;-45
2021/04/17 09:16:55;;;;;;;3.47;3.33;;;;;;;;;;5048139;28;20045;-47
2021/04/17 09:22:24;;;;;;;3.28;3.17;;;;;;;;;;5048039;28;20119;-47
2021/04/17 09:24:51;;;;;;;3.20;3.10;;;;;;;;;;5042061;28;20045;-46
2021/04/17 09:27:24;;;;;;;2.88;2.70;;;;;;;;;;5048802;28;20417;-46
2021/04/17 09:30:09;;;;;;;3.00;1.53;;;;;;;;;;5050034;28;20400;-46
2021/04/17 09:32:38;;;;;;;2.65;2.50;;;;;;;;;;5049967;28;20041;-45
2021/04/17 09:35:12;;;;;;;2.35;2.25;;;;;;;;;;5036283;28;20131;-47
2021/04/17 09:37:39;;;;;;;2.60;2.50;;;;;;;;;;5052180;28;20065;-46
2021/04/17 09:40:06;;;;;;;3.17;3.08;;;;;;;;;;5052097;28;20041;-46
2021/04/17 09:42:33;;;;;;;2.58;2.35;;;;;;;;;;5034087;28;20040;-45
2021/04/17 09:45:00;;;;;;;1.80;1.70;;;;;;;;;;5052826;28;20037;-46
2021/04/17 09:47:26;;;;;;;3.17;3.08;;;;;;;;;;5052160;28;20091;-46
2021/04/17 09:49:54;;;;;;;2.28;2.28;;;;;;;;;;5049237;28;20075;-46
2021/04/17 09:52:24;;;;;;;2.72;2.53;;;;;;;;;;5054348;28;20049;-45
2021/04/17 09:55:00;;;;;;;2.00;1.90;;;;;;;;;;5052338;28;20481;-46
2021/04/17 09:57:27;;;;;;;4.90;2.30;;;;;;;;;;5050543;28;20068;-48
2021/04/17 09:59:55;;;;;;;2.33;2.15;;;;;;;;;;5046444;28;20132;-48
2021/04/17 10:02:22;;;;;;;2.85;2.75;;;;;;;;;;5045686;28;20069;-46
2021/04/17 10:04:49;;;;;;;3.30;3.15;;;;;;;;;;5048163;28;20080;-46
2021/04/17 10:07:16;;;;;;;3.00;2.85;;;;;;;;;;5051759;28;20044;-53
2021/04/17 10:09:43;;;;;;;3.17;3.08;;;;;;;;;;5046477;28;20053;-54
2021/04/17 10:12:11;;;;;;;3.72;2.80;;;;;;;;;;5053667;28;20025;-53
2021/04/17 10:14:37;;;;;;;2.72;2.63;;;;;;;;;;5049919;28;20049;-51
2021/04/17 10:17:04;;;;;;;2.70;2.60;;;;;;;;;;5049503;28;20033;-60
2021/04/17 10:19:30;;;;;;;3.22;3.13;;;;;;;;;;5049034;28;20060;-57
2021/04/17 10:21:59;;;;;;;3.10;3.00;;;;;;;;;;5051549;28;20130;-57
2021/04/17 10:24:25;;;;;;;4.78;4.38;;;;;;;;;;5052897;28;20037;-58
2021/04/17 10:26:54;;;;;;;4.40;4.20;;;;;;;;;;5051266;28;20123;-57
2021/04/17 10:29:31;;;;;;;2.90;2.80;;;;;;;;;;5053094;28;20103;-57
2021/04/17 10:32:01;;;;;;;2.30;2.20;;;;;;;;;;5050255;28;20036;-58
2021/04/17 10:34:28;;;;;;;4.38;2.72;;;;;;;;;;5050742;28;20041;-57
2021/04/17 10:36:55;;;;;;;3.17;3.03;;;;;;;;;;5052253;28;20543;-57
2021/04/17 10:39:21;;;;;;;2.58;2.38;;;;;;;;;;5051051;28;20052;-58
2021/04/17 10:41:56;;;;;;;2.10;2.00;;;;;;;;;;5039499;28;20112;-58
2021/04/17 10:44:22;;;;;;;2.95;2.65;;;;;;;;;;5052986;28;20040;-58
2021/04/17 10:46:49;;;;;;;2.53;2.42;;;;;;;;;;5047026;28;20041;-58
2021/04/17 10:49:28;;;;;;;5.35;5.15;;;;;;;;;;5046173;28;20045;-57
2021/04/17 10:51:54;;;;;;;3.80;3.60;;;;;;;;;;5050742;28;20053;-57
2021/04/17 10:54:21;;;;;;;2.65;2.45;;;;;;;;;;5053005;28;20057;-58
2021/04/17 10:56:57;;;;;;;3.70;3.42;;;;;;;;;;5052691;28;20040;-57
2021/04/17 10:59:23;;;;;;;3.80;3.70;;;;;;;;;;5051429;28;20060;-58
2021/04/17 11:01:50;;;;;;;3.05;2.95;;;;;;;;;;5053242;28;20045;-57
2021/04/17 11:04:16;;;;;;;3.20;3.03;;;;;;;;;;5047267;28;20374;-57
2021/04/17 11:06:47;;;;;;;2.60;2.42;;;;;;;;;;5042630;28;20132;-57
2021/04/17 11:09:18;;;;;;;2.10;2.10;;;;;;;;;;5052776;28;20582;-57
2021/04/17 11:11:51;;;;;;;2.28;2.17;;;;;;;;;;5051626;28;20072;-57
2021/04/17 11:14:22;;;;;;;4.50;2.15;;;;;;;;;;5047100;28;20099;-57
2021/04/17 11:16:51;;;;;;;1.40;1.40;;;;;;;;;;5051459;28;20033;-58
2021/04/17 11:19:31;;;;;;;2.65;2.55;;;;;;;;;;5049411;28;20041;-57
2021/04/17 11:22:20;;;;;;;2.42;2.22;;;;;;;;;;5047509;28;20037;-57
2021/04/17 11:24:58;;;;;;;2.17;2.00;;;;;;;;;;5042482;28;20042;-58
2021/04/17 11:27:25;;;;;;;2.60;2.50;;;;;;;;;;5050550;28;20045;-56
2021/04/17 11:29:52;;;;;;;2.33;2.22;;;;;;;;;;5043704;28;20055;-58
2021/04/17 11:32:18;;;;;;;2.97;2.88;;;;;;;;;;5050924;28;20488;-58
2021/04/17 11:34:46;;;;;;;2.70;2.50;;;;;;;;;;5049301;28;20048;-58
2021/04/17 11:37:12;;;;;;;3.72;3.03;;;;;;;;;;5051904;28;20045;-57
2021/04/17 11:39:39;;;;;;;4.03;3.92;;;;;;;;;;5050543;28;20061;-58
2021/04/17 11:42:05;;;;;;;3.78;3.67;;;;;;;;;;5033805;28;20123;-58
2021/04/17 11:44:31;;;;;;;3.40;3.30;;;;;;;;;;5050761;28;20041;-58
2021/04/17 11:46:58;;;;;;;3.45;3.22;;;;;;;;;;5051117;28;20050;-57
2021/04/17 11:49:25;;;;;;;4.05;3.70;;;;;;;;;;5052484;28;20400;-58
2021/04/17 11:51:51;;;;;;;4.03;3.72;;;;;;;;;;5048689;28;20449;-58
2021/04/17 11:54:17;;;;;;;4.57;4.38;;;;;;;;;;5051105;28;20047;-57
2021/04/17 11:56:43;;;;;;;3.67;3.58;;;;;;;;;;5050897;28;20037;-58
2021/04/17 11:59:14;;;;;;;3.80;3.60;;;;;;;;;;5034686;28;20046;-57
2021/04/17 12:01:41;;;;;;;3.65;3.55;;;;;;;;;;5052252;28;20106;-57
2021/04/17 12:04:07;;;;;;;3.55;3.45;;;;;;;;;;5049843;28;20037;-58
2021/04/17 12:06:33;;;;;;;4.60;3.60;;;;;;;;;;5050011;28;20114;-57
2021/04/17 12:09:00;;;;;;;4.82;4.50;;;;;;;;;;5050713;28;20045;-57
2021/04/17 12:11:26;;;;;;;3.97;3.70;;;;;;;;;;5050249;28;20385;-56
2021/04/17 12:13:53;;;;;;;2.97;2.88;;;;;;;;;;5051968;28;20049;-57
2021/04/17 12:16:19;;;;;;;3.90;3.80;;;;;;;;;;5048914;28;20033;-57
2021/04/17 12:18:46;;;;;;;3.38;3.28;;;;;;;;;;5050257;28;20041;-58
2021/04/17 12:21:12;;;;;;;4.13;3.92;;;;;;;;;;5048435;28;20041;-58
2021/04/17 12:23:39;;;;;;;4.10;3.90;;;;;;;;;;5050305;28;20099;-57
2021/04/17 12:26:05;;;;;;;3.75;3.65;;;;;;;;;;5050866;28;20045;-57
2021/04/17 12:28:32;;;;;;;3.47;3.28;;;;;;;;;;5049739;28;20041;-58
2021/04/17 12:30:59;;;;;;;3.35;3.17;;;;;;;;;;5041315;28;20064;-58
2021/04/17 12:33:26;;;;;;;2.88;2.78;;;;;;;;;;5050632;28;20052;-58
2021/04/17 12:35:53;;;;;;;2.85;2.60;;;;;;;;;;5047879;28;20112;-57
2021/04/17 12:38:20;;;;;;;3.97;3.85;;;;;;;;;;5043509;28;20043;-57
2021/04/17 12:40:50;;;;;;;3.80;3.70;;;;;;;;;;5050308;28;20067;-58
2021/04/17 12:43:16;;;;;;;2.88;2.63;;;;;;;;;;5051119;28;20056;-57
2021/04/17 12:45:42;;;;;;;2.90;2.80;;;;;;;;;;5045883;28;20045;-56
2021/04/17 12:48:08;;;;;;;4.00;3.90;;;;;;;;;;5047258;28;20437;-58
2021/04/17 12:50:35;;;;;;;3.28;3.05;;;;;;;;;;5035610;28;20060;-58
2021/04/17 12:53:02;;;;;;;2.13;2.00;;;;;;;;;;5031943;28;20053;-58
2021/04/17 12:55:28;;;;;;;1.83;1.73;;;;;;;;;;5030366;28;20501;-58
2021/04/17 12:57:55;;;;;;;3.25;3.15;;;;;;;;;;5031410;28;20069;-58
2021/04/17 13:00:21;;;;;;;2.65;2.55;;;;;;;;;;5028300;28;20072;-55
2021/04/17 13:02:48;;;;;;;1.70;1.70;;;;;;;;;;5031380;28;20533;-57
2021/04/17 13:05:14;;;;;;;2.70;2.60;;;;;;;;;;5030062;28;20044;-58
2021/04/17 13:07:41;;;;;;;2.00;1.90;;;;;;;;;;5028707;28;20037;-58
2021/04/17 13:10:08;;;;;;;2.38;2.28;;;;;;;;;;5033191;28;20037;-57
2021/04/17 13:12:34;;;;;;;2.58;2.47;;;;;;;;;;5033227;28;20041;-58
2021/04/17 13:15:00;;;;;;;3.08;2.60;;;;;;;;;;5032889;28;20065;-55
2021/04/17 13:17:26;;;;;;;2.22;1.95;;;;;;;;;;5044825;28;20037;-58
2021/04/17 13:19:53;;;;;;;1.50;1.40;;;;;;;;;;5052560;28;20041;-56
2021/04/17 13:22:19;;;;;;;2.03;1.92;;;;;;;;;;5042086;28;20104;-57
2021/04/17 13:24:46;;;;;;;1.35;1.35;;;;;;;;;;5052097;28;20036;-57
2021/04/17 13:27:12;;;;;;;1.23;1.20;;;;;;;;;;5053872;28;20057;-57
2021/04/17 13:29:38;;;;;;;1.45;1.45;;;;;;;;;;5054626;28;20048;-58
2021/04/17 13:32:04;;;;;;;2.35;1.35;;;;;;;;;;5048687;28;20037;-58
2021/04/17 13:34:31;;;;;;;1.77;1.65;;;;;;;;;;5054000;28;20040;-58
2021/04/17 13:36:57;;;;;;;1.95;1.13;;;;;;;;;;5033937;28;20061;-56
2021/04/17 13:39:24;;;;;;;4.43;4.18;;;;;;;;;;5050725;28;20059;-57
2021/04/17 13:41:51;;;;;;;1.80;1.70;;;;;;;;;;5047766;28;20504;-57
2021/04/17 13:44:17;;;;;;;1.15;1.15;;;;;;;;;;5045558;28;20429;-58
2021/04/17 13:46:43;;;;;;;1.20;1.20;;;;;;;;;;5053738;28;20400;-54
2021/04/17 13:49:10;;;;;;;3.30;1.17;;;;;;;;;;5053216;28;20083;-58
2021/04/17 13:51:36;;;;;;;1.10;1.10;;;;;;;;;;5048696;28;20045;-57
2021/04/17 13:54:14;;;;;;;0.95;0.95;;;;;;;;;;5054310;28;20061;-57
2021/04/17 13:56:41;;;;;;;1.13;1.13;;;;;;;;;;5050471;28;20132;-57
2021/04/17 13:59:07;;;;;;;1.30;1.20;;;;;;;;;;5053065;28;20378;-55
2021/04/17 14:01:33;;;;;;;2.45;1.10;;;;;;;;;;5052309;28;20497;-57
2021/04/17 14:04:00;;;;;;;1.70;1.10;;;;;;;;;;5052882;28;20044;-58
2021/04/17 14:06:26;;;;;;;1.20;1.20;;;;;;;;;;5054400;28;20088;-58
2021/04/17 14:08:52;;;;;;;3.15;1.33;;;;;;;;;;5049957;28;20041;-58
2021/04/17 14:11:18;;;;;;;1.35;1.35;;;;;;;;;;5054052;28;20037;-58
2021/04/17 14:13:45;;;;;;;1.70;1.60;;;;;;;;;;5052724;28;20107;-58
2021/04/17 14:16:12;;;;;;;1.10;1.10;;;;;;;;;;5050598;28;20068;-58
2021/04/17 14:18:39;;;;;;;1.60;1.50;;;;;;;;;;5053658;28;20064;-58
2021/04/17 14:21:11;;;;;;;3.17;1.60;;;;;;;;;;5051624;28;20049;-58
2021/04/17 14:23:38;;;;;;;1.67;1.65;;;;;;;;;;5043094;28;20037;-56
2021/04/17 14:26:06;;;;;;;1.30;1.20;;;;;;;;;;5044172;28;20041;-52
2021/04/17 14:28:32;;;;;;;2.20;2.00;;;;;;;;;;5051240;28;20119;-57
2021/04/17 14:31:00;;;;;;;1.65;1.65;;;;;;;;;;5047546;28;20046;-57
2021/04/17 14:33:26;;;;;;;1.92;1.58;;;;;;;;;;5051307;28;20049;-56
2021/04/17 14:35:53;;;;;;;1.88;1.77;;;;;;;;;;5052509;28;20043;-57